Time;durP1;ratioP1;P1;durP2;ratioP2;P2;SDS_P1;SDS_P2;PMS_P1;PMS_P2;Temp;Humidity;BMP_temperature;BMP_pressure;BME280_temperature;BME280_humidity;BME280_pressure;Samples;Min_cycle;Max_cycle;Signal;HPM_P1;HPM_P2
2023/04/02 00:01:25;;;;;;;12.10;6.10;;;;;;;7.89;82.91;99624.64;674841;1261;139014;-77
2023/04/02 00:16:28;;;;;;;6.60;4.30;;;;;;;7.77;82.42;99639.73;669846;1263;139156;-77
2023/04/02 00:31:33;;;;;;;10.80;5.80;;;;;;;7.85;82.12;99655.67;675445;1259;139743;-78
2023/04/02 00:46:48;;;;;;;5.90;4.60;;;;;;;7.82;82.07;99672.02;675855;1263;139795;-78
2023/04/02 01:02:00;;;;;;;3.80;3.00;;;;;;;7.79;81.76;99686.61;676525;1259;139198;-78
2023/04/02 01:17:17;;;;;;;6.50;4.20;;;;;;;7.66;81.69;99702.84;676365;1263;139204;-77
2023/04/02 01:32:24;;;;;;;6.20;4.20;;;;;;;7.60;81.68;99713.42;682195;1262;138992;-78
2023/04/02 01:47:28;;;;;;;12.30;4.90;;;;;;;7.53;81.21;99724.13;679322;1259;139667;-77
2023/04/02 02:02:31;;;;;;;10.20;6.10;;;;;;;7.39;81.35;99743.02;676706;1259;139209;-77
2023/04/02 02:17:35;;;;;;;5.90;4.60;;;;;;;7.24;81.38;99759.26;674022;1260;138951;-78
2023/04/02 02:32:46;;;;;;;6.40;4.70;;;;;;;7.16;81.38;99777.12;672448;1262;139630;-77
2023/04/02 02:47:53;;;;;;;10.00;5.60;;;;;;;7.02;81.13;99790.24;679119;1275;139341;-78
2023/04/02 03:02:57;;;;;;;8.10;5.40;;;;;;;7.06;81.41;99801.23;678655;1259;140324;-79
2023/04/02 03:18:16;;;;;;;9.20;5.60;;;;;;;7.00;81.27;99817.35;674436;1262;139253;-78
2023/04/02 03:33:26;;;;;;;7.20;5.80;;;;;;;6.90;81.47;99838.13;674600;1263;139324;-78
2023/04/02 03:48:38;;;;;;;11.10;6.40;;;;;;;6.94;81.20;99856.92;675637;1262;138823;-77
2023/04/02 04:03:49;;;;;;;21.60;10.50;;;;;;;6.92;81.48;99870.65;674690;1264;139468;-76
2023/04/02 04:19:02;;;;;;;8.40;5.50;;;;;;;6.83;81.56;99892.42;675696;1262;139294;-76
2023/04/02 04:34:16;;;;;;;9.20;5.70;;;;;;;6.78;81.74;99924.92;675517;1262;139763;-76
2023/04/02 04:49:29;;;;;;;7.80;5.50;;;;;;;6.76;81.69;99948.89;678528;1259;139024;-78
2023/04/02 05:04:39;;;;;;;5.80;4.20;;;;;;;6.75;81.76;99964.63;674185;1263;139181;-78
2023/04/02 05:20:01;;;;;;;10.30;5.50;;;;;;;6.73;81.48;99984.02;681371;1260;139456;-77
2023/04/02 05:35:06;;;;;;;21.40;12.00;;;;;;;6.72;81.00;100009.89;681081;1262;139395;-77
2023/04/02 05:50:36;;;;;;;14.10;8.20;;;;;;;6.46;81.02;100028.48;679511;1262;139419;-78
2023/04/02 06:05:44;;;;;;;11.90;7.30;;;;;;;6.31;80.61;100041.43;681541;1260;139137;-77
2023/04/02 06:20:48;;;;;;;49.80;24.70;;;;;;;6.43;81.05;100060.55;676247;1262;139500;-78
2023/04/02 06:35:55;;;;;;;72.30;34.60;;;;;;;6.61;81.55;100084.20;673550;1260;139410;-79
2023/04/02 06:51:11;;;;;;;29.70;16.20;;;;;;;6.61;80.65;100111.67;673766;1262;140219;-81
2023/04/02 07:06:17;;;;;;;16.80;10.20;;;;;;;6.54;81.01;100127.86;679254;1263;140938;-78
2023/04/02 07:21:23;;;;;;;16.60;11.20;;;;;;;6.67;81.55;100148.62;672379;1259;139856;-76
2023/04/02 07:36:28;;;;;;;20.30;10.90;;;;;;;6.91;81.16;100166.69;678588;1273;139775;-76
2023/04/02 07:51:31;;;;;;;26.50;12.10;;;;;;;6.93;81.71;100180.91;672782;1259;139359;-75
2023/04/02 08:06:34;;;;;;;16.10;8.40;;;;;;;7.05;81.48;100208.19;669851;1262;139995;-75
2023/04/02 08:21:38;;;;;;;37.50;21.20;;;;;;;7.17;81.91;100222.27;670271;1262;140184;-77
2023/04/02 08:36:44;;;;;;;16.60;8.60;;;;;;;7.44;81.87;100242.89;671183;1263;139073;-77
2023/04/02 08:51:48;;;;;;;27.50;13.30;;;;;;;7.61;81.91;100264.06;671231;1262;139418;-77
2023/04/02 09:06:55;;;;;;;26.80;14.40;;;;;;;7.76;81.65;100280.02;668474;1262;139593;-77
2023/04/02 09:22:19;;;;;;;;;;;;;;;7.90;81.73;100292.71;672606;1260;140607;-77
2023/04/02 09:37:24;;;;;;;22.50;10.50;;;;;;;8.11;81.63;100318.96;674007;1264;126128;-77
2023/04/02 09:52:28;;;;;;;24.50;13.40;;;;;;;8.15;81.23;100338.67;675110;1262;139143;-79
2023/04/02 10:07:36;;;;;;;42.70;21.00;;;;;;;8.33;81.10;100361.89;673130;1266;139558;-77
2023/04/02 10:22:40;;;;;;;15.20;6.90;;;;;;;8.36;80.92;100377.64;667807;1261;140068;-77
2023/04/02 10:37:58;;;;;;;13.00;6.30;;;;;;;8.57;80.75;100387.05;671145;1263;138705;-78
2023/04/02 10:53:05;;;;;;;40.60;16.20;;;;;;;8.77;80.63;100406.61;668854;1263;178181;-78
2023/04/02 11:08:22;;;;;;;43.10;14.70;;;;;;;9.38;80.30;100428.08;671043;1278;140222;-78
2023/04/02 11:23:29;;;;;;;10.00;6.50;;;;;;;10.07;79.13;100448.19;671434;1263;139291;-78
2023/04/02 11:38:45;;;;;;;10.90;5.20;;;;;;;10.54;77.59;100466.44;670054;1269;139363;-78
2023/04/02 11:53:50;;;;;;;16.40;8.70;;;;;;;10.76;76.82;100483.83;672700;1270;139789;-78
2023/04/02 12:09:07;;;;;;;17.60;9.20;;;;;;;10.81;75.78;100500.26;670776;1263;139310;-78
2023/04/02 12:24:18;;;;;;;18.00;8.20;;;;;;;10.63;72.91;100517.47;673177;1267;139699;-79
2023/04/02 12:39:22;;;;;;;7.20;3.50;;;;;;;10.74;71.74;100533.71;670763;1264;140399;-78
2023/04/02 12:54:33;;;;;;;;;;;;;;;10.72;69.78;100554.02;670091;1260;138377;-78
2023/04/02 13:09:58;;;;;;;13.00;6.30;;;;;;;10.95;69.27;100566.39;675788;1263;125918;-78
2023/04/02 13:25:01;;;;;;;22.70;10.80;;;;;;;10.96;67.73;100588.71;670666;1262;139333;-78
2023/04/02 13:40:05;;;;;;;21.80;9.60;;;;;;;10.92;66.11;100608.67;670713;1273;139994;-77
2023/04/02 13:55:12;;;;;;;9.20;5.20;;;;;;;10.77;65.50;100630.54;669666;1263;139020;-79
2023/04/02 14:10:21;;;;;;;18.10;8.40;;;;;;;10.64;64.27;100637.38;671447;1261;139267;-78
2023/04/02 14:25:37;;;;;;;11.80;5.60;;;;;;;10.58;63.64;100651.76;669283;1270;139142;-78
2023/04/02 14:41:02;;;;;;;15.50;8.20;;;;;;;10.50;62.43;100667.07;672535;1263;139516;-78
2023/04/02 14:56:07;;;;;;;38.90;16.10;;;;;;;10.53;62.87;100680.44;671337;1264;139628;-78
2023/04/02 15:11:15;;;;;;;48.90;22.30;;;;;;;10.33;61.36;100694.81;671989;1264;140229;-78
2023/04/02 15:26:26;;;;;;;39.60;17.30;;;;;;;10.24;60.84;100712.41;673592;1273;139480;-77
2023/04/02 15:41:39;;;;;;;10.70;4.40;;;;;;;10.63;61.07;100735.04;671139;1262;139246;-78
2023/04/02 15:57:01;;;;;;;75.90;29.40;;;;;;;10.73;59.98;100758.91;674138;1264;139298;-81
2023/04/02 16:12:14;;;;;;;18.20;8.70;;;;;;;11.51;58.24;100771.41;673438;1260;139469;-81
2023/04/02 16:27:38;;;;;;;108.80;41.90;;;;;;;10.91;57.18;100794.17;670947;1265;139371;-84
2023/04/02 16:42:46;;;;;;;51.30;17.80;;;;;;;10.87;57.00;100816.38;671720;1265;139890;-85
2023/04/02 16:57:52;;;;;;;20.70;8.10;;;;;;;10.57;57.54;100834.39;671142;1262;140770;-84
2023/04/02 17:13:08;;;;;;;20.00;7.30;;;;;;;10.13;57.49;100854.73;669570;1262;141428;-84
2023/04/02 17:28:17;;;;;;;17.60;7.90;;;;;;;9.41;55.88;100883.16;673651;1265;139265;-85
2023/04/02 17:43:46;;;;;;;18.80;7.70;;;;;;;8.88;55.44;100912.44;667856;1262;140212;-84
2023/04/02 17:59:09;;;;;;;25.70;10.50;;;;;;;8.33;55.34;100941.14;668908;1265;139215;-84
2023/04/02 18:14:34;;;;;;;36.60;15.30;;;;;;;7.99;55.31;100973.55;670868;1265;139817;-85
2023/04/02 18:30:01;;;;;;;16.20;7.90;;;;;;;7.71;55.44;100993.84;670004;1265;138133;-85
2023/04/02 18:45:28;;;;;;;16.60;5.10;;;;;;;7.39;55.20;101015.68;669436;1263;139652;-85
2023/04/02 19:00:35;;;;;;;9.50;3.40;;;;;;;7.22;55.77;101037.08;670371;1265;138659;-83
2023/04/02 19:16:04;;;;;;;15.60;6.50;;;;;;;6.91;56.30;101061.92;673830;1265;139586;-84
2023/04/02 19:31:12;;;;;;;;;;;;;;;6.69;57.34;101083.96;671662;1265;139195;-84
2023/04/02 19:46:16;;;;;;;14.30;4.30;;;;;;;6.48;57.06;101101.15;669214;1265;126350;-84
2023/04/02 20:01:21;;;;;;;20.50;8.10;;;;;;;6.23;57.67;101116.95;669319;1278;139284;-80
2023/04/02 20:16:24;;;;;;;16.00;5.70;;;;;;;6.04;58.80;101131.23;674769;1268;139953;-83
2023/04/02 20:31:28;;;;;;;30.80;12.40;;;;;;;5.92;58.94;101156.70;673116;1265;139463;-84
2023/04/02 20:46:31;;;;;;;16.90;5.50;;;;;;;5.77;59.59;101165.45;671684;1265;139399;-82
2023/04/02 21:01:36;;;;;;;24.80;6.60;;;;;;;5.67;59.99;101187.02;670083;1266;138733;-86
2023/04/02 21:23:32;;;;;;;15.20;7.20;;;;;;;5.49;60.43;101212.09;650284;1297;544995;-84
2023/04/02 21:38:37;;;;;;;14.40;3.90;;;;;;;5.31;60.94;101223.58;666373;1273;141650;-82
2023/04/02 21:53:41;;;;;;;17.00;4.70;;;;;;;5.19;61.38;101228.54;667249;1271;139677;-84
2023/04/02 22:08:46;;;;;;;12.00;5.30;;;;;;;5.09;61.75;101247.23;665961;1273;139518;-84
2023/04/02 22:23:49;;;;;;;12.40;5.10;;;;;;;5.01;61.32;101255.21;670331;1272;139310;-83
2023/04/02 22:38:52;;;;;;;7.70;4.00;;;;;;;4.87;62.50;101267.71;666999;1274;138828;-84
2023/04/02 22:53:56;;;;;;;16.20;4.60;;;;;;;4.78;62.50;101276.30;669790;1272;138126;-84
2023/04/02 23:08:59;;;;;;;11.20;4.10;;;;;;;4.72;63.06;101284.52;671647;1275;139685;-81
2023/04/02 23:24:02;;;;;;;16.70;6.70;;;;;;;4.61;63.46;101298.04;673011;1268;137337;-83
2023/04/02 23:39:09;;;;;;;10.30;3.00;;;;;;;4.50;63.43;101302.17;667627;1282;138976;-82
2023/04/02 23:54:13;;;;;;;4.60;2.50;;;;;;;4.39;63.83;101304.44;669193;1269;138069;-84
